Time;durP1;ratioP1;P1;durP2;ratioP2;P2;SDS_P1;SDS_P2;PMS_P1;PMS_P2;Temp;Humidity;BMP_temperature;BMP_pressure;BME280_temperature;BME280_humidity;BME280_pressure;Samples;Min_cycle;Max_cycle;Signal;HPM_P1;HPM_P2
2024/01/02 00:01:54;;;;;;;526.78;210.50;;;3.30;99.90;;;;;;4998248;28;20087;-53
2024/01/02 00:04:19;;;;;;;522.83;228.35;;;3.30;99.90;;;;;;4998181;28;20030;-53
2024/01/02 00:06:48;;;;;;;457.35;202.32;;;3.20;99.90;;;;;;4997824;28;20495;-53
2024/01/02 00:09:15;;;;;;;689.95;323.58;;;3.20;99.90;;;;;;4997980;28;20571;-53
2024/01/02 00:11:42;;;;;;;693.33;305.40;;;3.20;99.90;;;;;;4997937;28;20080;-53
2024/01/02 00:14:08;;;;;;;735.45;327.13;;;3.20;99.90;;;;;;4997752;28;20081;-53
2024/01/02 00:16:34;;;;;;;486.98;222.20;;;3.30;99.90;;;;;;4997863;28;20030;-53
2024/01/02 00:19:00;;;;;;;504.35;226.38;;;3.30;99.90;;;;;;4997905;28;20057;-53
2024/01/02 00:21:26;;;;;;;474.98;210.70;;;3.30;99.90;;;;;;4997767;28;20030;-53
2024/01/02 00:23:52;;;;;;;361.75;162.93;;;3.20;99.90;;;;;;4997734;28;20502;-53
2024/01/02 00:26:18;;;;;;;381.45;174.63;;;3.20;99.90;;;;;;4997646;28;20032;-53
2024/01/02 00:28:44;;;;;;;398.50;176.60;;;3.20;99.90;;;;;;4997681;28;20033;-53
2024/01/02 00:31:10;;;;;;;402.33;177.65;;;3.20;99.90;;;;;;4996457;28;20022;-53
2024/01/02 00:33:36;;;;;;;326.65;150.05;;;3.30;99.90;;;;;;4997565;28;20400;-53
2024/01/02 00:36:02;;;;;;;344.77;156.82;;;3.30;99.90;;;;;;4997582;28;20022;-53
2024/01/02 00:38:28;;;;;;;334.27;145.88;;;3.30;99.90;;;;;;4997283;28;20084;-53
2024/01/02 00:40:55;;;;;;;536.45;227.60;;;3.30;99.90;;;;;;4996165;28;20027;-53
2024/01/02 00:43:21;;;;;;;329.00;146.02;;;3.30;99.90;;;;;;4997420;28;20177;-53
2024/01/02 00:45:47;;;;;;;399.70;185.13;;;3.20;99.90;;;;;;4995947;28;20030;-53
2024/01/02 00:48:13;;;;;;;363.35;163.93;;;3.20;99.90;;;;;;4995994;28;20031;-53
2024/01/02 00:50:39;;;;;;;462.95;203.23;;;3.20;99.90;;;;;;4997355;28;20089;-53
2024/01/02 00:53:05;;;;;;;326.75;146.82;;;3.20;99.90;;;;;;4995703;28;20105;-53
2024/01/02 00:55:31;;;;;;;337.58;155.23;;;3.20;99.90;;;;;;4995862;28;20038;-53
2024/01/02 00:57:57;;;;;;;341.52;156.68;;;3.30;99.90;;;;;;4995903;28;20113;-53
2024/01/02 01:00:23;;;;;;;366.13;164.43;;;3.20;99.90;;;;;;4997194;28;20077;-53
2024/01/02 01:02:49;;;;;;;271.00;128.48;;;3.10;99.90;;;;;;4996993;28;20038;-53
2024/01/02 01:05:15;;;;;;;415.75;179.23;;;3.10;99.90;;;;;;4995673;28;20488;-53
2024/01/02 01:07:41;;;;;;;444.20;190.57;;;3.00;99.90;;;;;;4996820;28;20471;-54
2024/01/02 01:10:07;;;;;;;353.38;153.15;;;3.00;99.90;;;;;;4995659;28;20026;-53
2024/01/02 01:12:33;;;;;;;332.40;149.60;;;2.90;99.90;;;;;;4996842;28;20018;-53
2024/01/02 01:14:58;;;;;;;424.23;193.02;;;2.90;99.90;;;;;;4996816;28;20490;-53
2024/01/02 01:17:24;;;;;;;555.38;253.15;;;2.90;99.90;;;;;;4996701;28;20061;-53
2024/01/02 01:19:50;;;;;;;498.45;232.20;;;2.90;99.90;;;;;;4995491;28;20058;-53
2024/01/02 01:22:17;;;;;;;380.15;176.80;;;2.90;99.90;;;;;;4995260;28;20030;-53
2024/01/02 01:24:43;;;;;;;328.92;159.27;;;2.90;99.90;;;;;;4996677;28;20038;-53
2024/01/02 01:27:09;;;;;;;320.60;157.57;;;2.80;99.90;;;;;;4994509;28;20096;-53
2024/01/02 01:29:34;;;;;;;342.50;167.88;;;2.80;99.90;;;;;;4996635;28;20080;-53
2024/01/02 01:32:00;;;;;;;307.92;151.85;;;2.80;99.90;;;;;;4995225;28;20058;-53
2024/01/02 01:34:26;;;;;;;316.67;161.30;;;2.90;99.90;;;;;;4996475;28;20058;-53
2024/01/02 01:36:54;;;;;;;348.60;180.32;;;2.90;99.90;;;;;;4996314;28;20022;-53
2024/01/02 01:39:20;;;;;;;378.60;189.75;;;2.90;99.90;;;;;;4996466;28;20031;-53
2024/01/02 01:41:46;;;;;;;353.55;178.10;;;2.90;99.90;;;;;;4995115;28;20064;-53
2024/01/02 01:44:12;;;;;;;334.33;167.13;;;2.80;99.90;;;;;;4996355;28;20030;-53
2024/01/02 01:46:40;;;;;;;366.70;185.77;;;2.70;99.90;;;;;;4994885;28;20618;-53
2024/01/02 01:49:07;;;;;;;348.02;169.68;;;2.80;99.90;;;;;;4995037;28;20050;-53
2024/01/02 01:51:40;;;;;;;290.98;147.90;;;2.70;99.90;;;;;;4996334;28;20081;-53
2024/01/02 01:54:07;;;;;;;320.60;158.68;;;2.70;99.90;;;;;;4996080;28;20034;-53
2024/01/02 01:56:34;;;;;;;326.60;165.35;;;2.60;99.90;;;;;;4996307;28;20460;-53
2024/01/02 01:59:04;;;;;;;283.00;141.73;;;2.60;99.90;;;;;;4994920;28;20041;-53
2024/01/02 02:01:31;;;;;;;304.65;142.52;;;2.50;99.90;;;;;;4996186;28;20054;-53
2024/01/02 02:03:59;;;;;;;489.42;175.80;;;2.50;99.90;;;;;;4994859;28;20030;-53
2024/01/02 02:06:26;;;;;;;280.25;131.80;;;2.50;99.90;;;;;;4994778;28;20558;-53
2024/01/02 02:08:52;;;;;;;339.90;157.68;;;2.50;99.90;;;;;;4994702;28;20031;-53
2024/01/02 02:11:20;;;;;;;350.75;162.38;;;2.40;99.90;;;;;;4995097;28;20022;-53
2024/01/02 02:13:47;;;;;;;279.90;133.05;;;2.40;99.90;;;;;;4994764;28;20536;-53
2024/01/02 02:16:14;;;;;;;420.08;186.60;;;2.40;99.90;;;;;;4994524;28;20037;-53
2024/01/02 02:18:40;;;;;;;250.68;117.43;;;2.10;99.90;;;;;;4994829;28;20085;-53
2024/01/02 02:21:06;;;;;;;219.23;111.95;;;2.10;99.90;;;;;;4994483;28;20042;-53
2024/01/02 02:23:32;;;;;;;220.60;111.55;;;2.20;99.90;;;;;;4994561;28;20056;-53
2024/01/02 02:25:58;;;;;;;242.93;122.70;;;2.30;99.90;;;;;;4995837;28;20019;-53
2024/01/02 02:28:24;;;;;;;293.67;134.25;;;2.30;99.90;;;;;;4994680;28;20353;-53
2024/01/02 02:30:50;;;;;;;235.30;111.22;;;2.20;99.90;;;;;;4995861;28;20117;-53
2024/01/02 02:33:16;;;;;;;282.65;135.10;;;2.30;99.90;;;;;;4994607;28;20160;-53
2024/01/02 02:35:41;;;;;;;280.55;129.43;;;2.30;99.90;;;;;;4994446;28;20042;-53
2024/01/02 02:38:07;;;;;;;277.80;130.93;;;2.30;99.90;;;;;;4997670;28;20045;-53
2024/01/02 02:40:33;;;;;;;311.33;145.85;;;2.30;99.90;;;;;;4999694;28;20024;-53
2024/01/02 02:42:59;;;;;;;283.08;137.40;;;2.20;99.90;;;;;;4999676;28;20033;-53
2024/01/02 02:45:27;;;;;;;278.80;128.98;;;2.20;99.90;;;;;;4999519;28;20031;-53
2024/01/02 02:47:53;;;;;;;356.95;159.43;;;2.20;99.90;;;;;;4999552;28;20022;-53
2024/01/02 02:50:19;;;;;;;375.30;161.00;;;2.20;99.90;;;;;;4999528;28;20054;-53
2024/01/02 02:52:45;;;;;;;361.42;157.70;;;2.20;99.90;;;;;;4999362;28;20038;-53
2024/01/02 02:55:11;;;;;;;462.25;172.35;;;2.20;99.90;;;;;;4999375;28;20030;-53
2024/01/02 02:57:37;;;;;;;439.92;168.98;;;2.20;99.90;;;;;;4999338;28;20022;-53
2024/01/02 03:00:04;;;;;;;347.10;139.48;;;2.10;99.90;;;;;;4998007;28;20030;-53
2024/01/02 03:02:30;;;;;;;319.83;130.20;;;2.00;99.90;;;;;;4998064;28;20101;-53
2024/01/02 03:04:56;;;;;;;556.60;188.02;;;2.00;99.90;;;;;;4999126;28;20022;-53
2024/01/02 03:07:22;;;;;;;551.03;194.15;;;2.10;99.90;;;;;;4999192;28;20073;-53
2024/01/02 03:09:48;;;;;;;487.35;181.32;;;2.00;99.90;;;;;;4999094;28;20373;-53
2024/01/02 03:12:14;;;;;;;551.92;190.25;;;1.90;99.90;;;;;;4999129;28;20031;-53
2024/01/02 03:14:40;;;;;;;517.10;172.00;;;1.80;99.90;;;;;;4999065;28;20379;-53
2024/01/02 03:17:06;;;;;;;275.85;126.00;;;1.80;99.90;;;;;;4998919;28;20039;-53
2024/01/02 03:19:31;;;;;;;308.15;134.60;;;1.80;99.90;;;;;;4998986;28;20384;-53
2024/01/02 03:21:57;;;;;;;411.45;159.40;;;1.90;99.90;;;;;;4998762;28;20113;-53
2024/01/02 03:24:23;;;;;;;391.17;161.38;;;1.80;99.90;;;;;;4999038;28;20369;-53
2024/01/02 03:26:49;;;;;;;521.90;180.50;;;1.70;99.90;;;;;;4998776;28;20034;-53
2024/01/02 03:29:16;;;;;;;485.02;174.57;;;1.70;99.90;;;;;;4998780;28;20032;-53
2024/01/02 03:31:43;;;;;;;482.90;184.35;;;1.60;99.90;;;;;;4998789;28;20472;-53
2024/01/02 03:34:09;;;;;;;318.75;128.30;;;1.50;99.90;;;;;;4998697;28;20026;-53
2024/01/02 03:36:35;;;;;;;522.67;183.05;;;1.60;99.90;;;;;;4998558;28;20030;-53
2024/01/02 03:39:02;;;;;;;477.48;168.73;;;1.50;99.90;;;;;;4998619;28;20034;-53
2024/01/02 03:41:28;;;;;;;475.30;182.20;;;1.60;99.90;;;;;;4998336;28;20428;-53
2024/01/02 03:43:54;;;;;;;544.80;195.77;;;1.60;99.90;;;;;;4998449;28;20038;-53
2024/01/02 03:46:20;;;;;;;411.65;172.20;;;1.50;99.90;;;;;;4998391;28;20104;-53
2024/01/02 03:48:46;;;;;;;351.70;143.45;;;1.60;99.90;;;;;;4997885;28;20073;-53
2024/01/02 03:51:12;;;;;;;478.95;174.73;;;1.60;99.90;;;;;;4998150;28;20459;-53
2024/01/02 03:53:37;;;;;;;421.13;156.90;;;1.60;99.90;;;;;;4998162;28;20050;-53
2024/01/02 03:56:04;;;;;;;620.78;196.40;;;1.70;99.90;;;;;;4998650;28;20400;-53
2024/01/02 03:58:30;;;;;;;469.30;176.95;;;1.60;99.90;;;;;;4998150;28;20373;-53
2024/01/02 04:00:56;;;;;;;325.98;131.52;;;1.70;99.90;;;;;;4998307;28;20153;-53
2024/01/02 04:03:22;;;;;;;605.17;207.40;;;1.70;99.90;;;;;;4998178;28;20069;-53
2024/01/02 04:05:49;;;;;;;313.42;125.28;;;1.80;99.90;;;;;;4998074;28;20113;-53
2024/01/02 04:08:14;;;;;;;314.02;132.93;;;1.70;99.90;;;;;;4998108;28;20054;-53
2024/01/02 04:10:40;;;;;;;523.08;176.23;;;1.60;99.90;;;;;;4997837;28;20117;-53
2024/01/02 04:13:09;;;;;;;460.77;154.70;;;1.60;99.90;;;;;;4998063;28;20481;-53
2024/01/02 04:15:35;;;;;;;306.77;118.53;;;1.40;99.90;;;;;;4997951;28;20058;-53
2024/01/02 04:18:02;;;;;;;250.65;111.70;;;1.40;99.90;;;;;;4998137;28;20034;-53
2024/01/02 04:20:27;;;;;;;272.48;112.75;;;1.40;99.90;;;;;;4998028;28;20030;-53
2024/01/02 04:22:54;;;;;;;352.80;130.05;;;1.40;99.90;;;;;;4997700;28;20069;-53
2024/01/02 04:25:23;;;;;;;677.90;199.70;;;1.40;99.90;;;;;;4997651;28;20530;-53
2024/01/02 04:27:54;;;;;;;340.40;128.48;;;1.50;99.90;;;;;;4997697;28;20027;-53
2024/01/02 04:30:20;;;;;;;498.52;168.85;;;1.40;99.90;;;;;;4997706;28;20033;-53
2024/01/02 04:32:46;;;;;;;441.80;160.60;;;1.40;99.90;;;;;;4997597;28;20376;-53
2024/01/02 04:35:12;;;;;;;301.52;118.10;;;1.30;99.90;;;;;;4997618;28;20030;-53
2024/01/02 04:37:38;;;;;;;244.65;111.93;;;1.20;99.90;;;;;;4997413;28;20018;-53
2024/01/02 04:40:05;;;;;;;372.10;148.35;;;1.30;99.90;;;;;;4997511;28;20030;-53
2024/01/02 04:42:35;;;;;;;230.52;108.15;;;1.40;99.90;;;;;;4997502;28;20038;-53
2024/01/02 04:45:02;;;;;;;230.30;109.50;;;1.50;99.90;;;;;;4997423;28;20081;-53
2024/01/02 04:47:28;;;;;;;324.58;133.93;;;1.40;99.90;;;;;;4997324;28;20026;-54
2024/01/02 04:49:55;;;;;;;436.60;146.75;;;1.30;99.90;;;;;;4997350;28;20033;-53
2024/01/02 04:52:21;;;;;;;342.90;134.93;;;1.10;99.90;;;;;;4997194;28;20023;-53
2024/01/02 04:54:48;;;;;;;376.00;138.27;;;1.10;99.90;;;;;;4997155;28;20076;-53
2024/01/02 04:57:15;;;;;;;409.88;159.43;;;1.00;99.90;;;;;;4997113;28;20029;-53
2024/01/02 04:59:41;;;;;;;290.25;128.77;;;1.00;99.90;;;;;;4996971;28;20026;-53
2024/01/02 05:02:07;;;;;;;373.02;145.85;;;0.90;99.90;;;;;;4996999;28;20034;-53
2024/01/02 05:04:33;;;;;;;390.35;145.38;;;0.90;99.90;;;;;;4997074;28;20041;-53
2024/01/02 05:06:59;;;;;;;264.63;116.50;;;0.90;99.90;;;;;;4996807;28;20064;-53
2024/01/02 05:09:27;;;;;;;370.70;141.27;;;0.90;99.90;;;;;;4996950;28;20030;-53
2024/01/02 05:11:53;;;;;;;388.25;154.77;;;1.00;99.90;;;;;;4996883;28;20388;-53
2024/01/02 05:14:19;;;;;;;219.23;106.78;;;0.90;99.90;;;;;;4996842;28;20035;-53
2024/01/02 05:16:45;;;;;;;262.05;124.85;;;0.90;99.90;;;;;;4996607;28;20088;-53
2024/01/02 05:19:11;;;;;;;218.95;105.70;;;0.90;99.90;;;;;;4996742;28;20392;-53
2024/01/02 05:21:37;;;;;;;245.30;116.55;;;1.00;99.90;;;;;;4996699;28;20073;-53
2024/01/02 05:24:03;;;;;;;272.60;119.18;;;0.90;99.90;;;;;;4996741;28;20168;-53
2024/01/02 05:26:29;;;;;;;257.25;110.75;;;0.90;99.90;;;;;;4996600;28;20042;-53
2024/01/02 05:28:56;;;;;;;390.52;135.68;;;0.90;99.90;;;;;;4996640;28;20053;-53
2024/01/02 05:31:22;;;;;;;531.33;153.65;;;0.90;99.90;;;;;;4996737;28;20022;-53
2024/01/02 05:33:48;;;;;;;371.52;123.40;;;0.90;99.90;;;;;;4996550;28;20033;-53
2024/01/02 05:36:14;;;;;;;379.30;131.40;;;0.80;99.90;;;;;;4996382;28;20026;-53
2024/01/02 05:38:39;;;;;;;316.52;115.80;;;0.90;99.90;;;;;;4996489;28;20049;-53
2024/01/02 05:41:07;;;;;;;254.95;107.50;;;0.90;99.90;;;;;;4996461;28;20033;-53
2024/01/02 05:43:33;;;;;;;375.95;132.75;;;0.90;99.90;;;;;;4996203;28;20061;-53
2024/01/02 05:45:59;;;;;;;192.63;84.78;;;0.90;99.90;;;;;;4996300;28;20372;-53
2024/01/02 05:48:25;;;;;;;264.35;100.47;;;1.00;99.90;;;;;;4996320;28;20037;-53
2024/01/02 05:50:51;;;;;;;219.93;85.15;;;1.10;99.90;;;;;;4996223;28;20035;-53
2024/01/02 05:53:17;;;;;;;266.88;109.85;;;1.20;99.90;;;;;;4996281;28;20093;-53
2024/01/02 05:55:43;;;;;;;327.60;113.53;;;1.20;99.90;;;;;;4996202;28;20034;-53
2024/01/02 05:58:09;;;;;;;258.52;98.55;;;1.10;99.90;;;;;;4996145;28;20126;-53
2024/01/02 06:00:35;;;;;;;185.25;83.53;;;1.20;99.90;;;;;;4996261;28;20057;-53
2024/01/02 06:03:01;;;;;;;203.75;89.10;;;1.20;99.90;;;;;;4996164;28;20037;-53
2024/01/02 06:05:27;;;;;;;187.20;79.05;;;1.20;99.90;;;;;;4996053;28;20026;-53
2024/01/02 06:07:52;;;;;;;245.35;94.45;;;1.30;99.90;;;;;;4996292;28;20030;-53
2024/01/02 06:10:18;;;;;;;183.68;78.88;;;1.20;99.90;;;;;;4996318;28;20026;-53
2024/01/02 06:12:44;;;;;;;306.10;109.13;;;1.10;99.90;;;;;;4998935;28;20030;-53
2024/01/02 06:15:10;;;;;;;214.32;89.32;;;1.20;99.90;;;;;;5002479;28;20031;-53
2024/01/02 06:17:36;;;;;;;248.35;93.38;;;1.20;99.90;;;;;;5002449;28;20096;-53
2024/01/02 06:20:04;;;;;;;287.50;101.57;;;1.20;99.90;;;;;;5002412;28;20515;-53
2024/01/02 06:22:29;;;;;;;372.30;111.72;;;1.20;99.90;;;;;;5002540;28;20389;-53
2024/01/02 06:24:56;;;;;;;225.65;83.10;;;1.20;99.90;;;;;;5002099;28;20078;-53
2024/01/02 06:27:21;;;;;;;236.65;89.60;;;1.20;99.90;;;;;;5002371;28;20040;-53
2024/01/02 06:29:48;;;;;;;298.40;91.68;;;1.30;99.90;;;;;;5002429;28;20030;-53
2024/01/02 06:32:14;;;;;;;205.68;73.40;;;1.30;99.90;;;;;;5002415;28;20026;-53
2024/01/02 06:34:40;;;;;;;210.88;72.35;;;1.30;99.90;;;;;;5002344;28;20033;-53
2024/01/02 06:37:05;;;;;;;291.20;92.65;;;1.30;99.90;;;;;;5002267;28;20030;-53
2024/01/02 06:39:31;;;;;;;320.10;88.05;;;1.20;99.90;;;;;;5002400;28;20049;-53
2024/01/02 06:41:57;;;;;;;271.45;83.97;;;1.20;99.90;;;;;;5002276;28;20038;-53
2024/01/02 06:44:23;;;;;;;346.13;107.95;;;1.30;99.90;;;;;;5002249;28;20037;-53
2024/01/02 06:46:49;;;;;;;231.98;87.05;;;1.30;99.90;;;;;;5001075;28;20033;-53
2024/01/02 06:49:15;;;;;;;219.50;81.10;;;1.50;99.90;;;;;;5002428;28;20030;-53
2024/01/02 06:51:40;;;;;;;182.55;70.85;;;1.50;99.90;;;;;;5002190;28;20035;-53
2024/01/02 06:54:06;;;;;;;243.38;80.30;;;1.60;99.90;;;;;;5001923;28;20468;-53
2024/01/02 06:56:32;;;;;;;329.63;95.88;;;1.60;99.90;;;;;;5002135;28;20057;-53
2024/01/02 06:58:58;;;;;;;333.05;100.00;;;1.60;99.90;;;;;;5002218;28;20034;-53
2024/01/02 07:01:24;;;;;;;201.68;80.03;;;1.40;99.90;;;;;;5002134;28;20029;-53
2024/01/02 07:03:50;;;;;;;223.52;82.53;;;1.40;99.90;;;;;;5002073;28;20476;-53
2024/01/02 07:06:17;;;;;;;261.48;85.45;;;1.40;99.90;;;;;;5002059;28;20034;-53
2024/01/02 07:08:42;;;;;;;271.25;86.45;;;1.40;99.90;;;;;;5002084;28;20080;-53
2024/01/02 07:11:08;;;;;;;423.73;111.95;;;1.40;99.90;;;;;;5001941;28;20026;-53
2024/01/02 07:13:34;;;;;;;340.90;83.13;;;1.30;99.90;;;;;;5002103;28;20026;-53
2024/01/02 07:16:00;;;;;;;251.15;72.60;;;1.30;99.90;;;;;;5001990;28;20038;-54
2024/01/02 07:18:28;;;;;;;288.90;78.53;;;1.50;99.90;;;;;;5001953;28;20042;-53
2024/01/02 07:20:54;;;;;;;218.75;68.93;;;1.30;99.90;;;;;;5001911;28;20027;-53
2024/01/02 07:23:19;;;;;;;168.85;76.13;;;1.30;99.90;;;;;;5001244;28;20491;-53
2024/01/02 07:25:45;;;;;;;231.77;87.82;;;1.50;99.90;;;;;;4997789;28;20492;-53
2024/01/02 07:28:11;;;;;;;380.45;107.47;;;1.60;99.90;;;;;;4998851;28;20037;-53
2024/01/02 07:30:37;;;;;;;286.35;98.40;;;1.60;99.90;;;;;;4997502;28;20030;-53
2024/01/02 07:33:03;;;;;;;328.00;102.75;;;1.50;99.90;;;;;;4998726;28;20049;-53
2024/01/02 07:35:29;;;;;;;193.68;76.68;;;1.40;99.90;;;;;;4998709;28;20022;-53
2024/01/02 07:37:55;;;;;;;229.25;85.47;;;1.60;99.90;;;;;;4998571;28;20034;-53
2024/01/02 07:40:21;;;;;;;192.40;75.65;;;1.70;99.90;;;;;;4998813;28;20271;-53
2024/01/02 07:42:47;;;;;;;215.38;73.00;;;1.70;99.90;;;;;;4998546;28;20396;-53
2024/01/02 07:45:13;;;;;;;348.00;81.50;;;1.90;99.90;;;;;;4998471;28;20054;-53
2024/01/02 07:47:38;;;;;;;235.77;73.43;;;1.90;99.90;;;;;;4998342;28;20041;-53
2024/01/02 07:50:05;;;;;;;184.15;67.63;;;1.80;99.90;;;;;;4998439;28;20105;-53
2024/01/02 07:52:32;;;;;;;283.30;88.40;;;1.80;99.90;;;;;;4998292;28;20476;-53
2024/01/02 07:54:58;;;;;;;269.73;92.47;;;1.70;99.90;;;;;;4998270;28;20057;-53
2024/01/02 07:57:25;;;;;;;205.45;73.45;;;1.70;99.90;;;;;;4998328;28;20031;-53
2024/01/02 07:59:51;;;;;;;235.52;75.75;;;1.90;99.90;;;;;;4998250;28;20117;-53
2024/01/02 08:02:17;;;;;;;261.48;76.88;;;1.90;99.90;;;;;;4998257;28;20117;-53
2024/01/02 08:04:43;;;;;;;204.52;65.88;;;2.10;99.90;;;;;;4998150;28;20061;-53
2024/01/02 08:07:08;;;;;;;209.75;68.47;;;2.10;99.90;;;;;;4997998;28;20026;-53
2024/01/02 08:09:34;;;;;;;155.90;61.85;;;2.10;99.90;;;;;;4998074;28;20486;-53
2024/01/02 08:12:00;;;;;;;323.75;81.15;;;2.20;99.90;;;;;;4997993;28;20037;-53
2024/01/02 08:14:26;;;;;;;166.15;65.30;;;2.10;99.90;;;;;;4998006;28;20034;-53
2024/01/02 08:16:52;;;;;;;168.07;70.35;;;2.20;99.90;;;;;;4997476;28;20076;-53
2024/01/02 08:19:17;;;;;;;177.73;67.70;;;2.20;99.90;;;;;;4997914;28;20526;-53
2024/01/02 08:21:43;;;;;;;195.43;70.03;;;2.30;99.90;;;;;;4997882;28;20034;-53
2024/01/02 08:24:09;;;;;;;176.20;63.50;;;2.30;99.90;;;;;;4997757;28;20041;-53
2024/01/02 08:26:36;;;;;;;129.55;61.00;;;2.40;99.90;;;;;;4997658;28;20034;-53
2024/01/02 08:29:03;;;;;;;133.35;62.90;;;2.40;99.90;;;;;;4997679;28;20030;-53
2024/01/02 08:31:29;;;;;;;141.23;60.72;;;2.70;99.90;;;;;;4997872;28;20134;-53
2024/01/02 08:33:55;;;;;;;138.98;58.20;;;2.90;99.90;;;;;;4997619;28;20067;-53
2024/01/02 08:36:21;;;;;;;156.90;63.65;;;2.80;99.90;;;;;;4997065;28;20022;-53
2024/01/02 08:38:47;;;;;;;159.32;64.28;;;2.90;99.90;;;;;;4997479;28;20042;-53
2024/01/02 08:41:13;;;;;;;211.07;67.70;;;3.00;99.90;;;;;;4997495;28;20022;-53
2024/01/02 08:43:39;;;;;;;143.77;60.88;;;2.80;99.90;;;;;;4997265;28;20042;-53
2024/01/02 08:46:04;;;;;;;139.32;63.47;;;2.70;99.90;;;;;;4997354;28;20478;-53
2024/01/02 08:48:30;;;;;;;137.88;60.50;;;3.00;99.90;;;;;;4997592;28;20134;-53
2024/01/02 08:50:56;;;;;;;199.13;65.78;;;3.00;99.90;;;;;;4997281;28;20026;-53
2024/01/02 08:53:22;;;;;;;232.45;68.00;;;3.10;99.90;;;;;;4997249;28;20117;-53
2024/01/02 08:55:48;;;;;;;147.50;68.22;;;3.20;99.90;;;;;;4997199;28;20125;-53
2024/01/02 08:58:14;;;;;;;157.13;71.68;;;3.60;99.90;;;;;;4997108;28;20057;-53
2024/01/02 09:00:40;;;;;;;202.75;73.88;;;4.00;99.90;;;;;;4997127;28;20076;-53
2024/01/02 09:03:08;;;;;;;140.13;65.10;;;4.30;99.90;;;;;;4997174;28;20089;-53
2024/01/02 09:05:34;;;;;;;170.35;74.60;;;4.50;99.90;;;;;;4996890;28;20029;-53
2024/01/02 09:08:01;;;;;;;154.85;73.05;;;4.70;99.90;;;;;;4997123;28;20030;-53
2024/01/02 09:10:26;;;;;;;156.90;76.60;;;4.70;99.90;;;;;;4997036;28;20117;-53
2024/01/02 09:12:52;;;;;;;158.02;75.88;;;4.50;99.90;;;;;;4996761;28;20026;-53
2024/01/02 09:15:18;;;;;;;161.55;78.93;;;4.40;99.90;;;;;;4997028;28;20404;-53
2024/01/02 09:17:44;;;;;;;151.27;75.95;;;4.50;99.90;;;;;;4996776;28;20065;-53
2024/01/02 09:20:11;;;;;;;154.20;72.70;;;4.70;99.90;;;;;;4997133;28;20102;-53
2024/01/02 09:22:37;;;;;;;138.68;68.55;;;4.90;99.90;;;;;;4996759;28;20022;-53
2024/01/02 09:25:04;;;;;;;135.02;66.95;;;5.40;99.90;;;;;;4996907;28;20033;-53
2024/01/02 09:27:31;;;;;;;133.93;66.68;;;5.40;99.90;;;;;;4996495;28;20034;-53
2024/01/02 09:30:00;;;;;;;127.18;63.90;;;5.60;99.90;;;;;;4995443;28;20026;-53
2024/01/02 09:32:26;;;;;;;117.95;57.60;;;6.10;99.90;;;;;;4996607;28;20077;-53
2024/01/02 09:34:53;;;;;;;138.35;60.25;;;6.90;99.90;;;;;;4996418;28;20038;-53
2024/01/02 09:37:19;;;;;;;121.15;60.70;;;7.10;99.90;;;;;;4996314;28;20427;-53
2024/01/02 09:39:45;;;;;;;148.00;66.28;;;7.40;99.90;;;;;;4996419;28;20117;-53
2024/01/02 09:42:35;;;;;;;121.45;62.33;;;7.70;99.90;;;;;;4996317;28;20026;-53
2024/01/02 09:45:13;;;;;;;119.15;60.70;;;8.10;99.90;;;;;;4996411;28;20033;-53
2024/01/02 09:48:03;;;;;;;109.47;59.20;;;8.60;99.90;;;;;;4995728;28;20026;-53
2024/01/02 09:50:38;;;;;;;111.45;60.22;;;9.00;97.80;;;;;;4996216;28;20088;-53
2024/01/02 09:53:49;;;;;;;112.57;59.30;;;9.30;96.70;;;;;;4996304;28;20084;-53
2024/01/02 09:56:44;;;;;;;106.22;57.15;;;9.70;96.40;;;;;;4991437;28;20183;-53
2024/01/02 09:59:22;;;;;;;107.70;56.85;;;10.70;93.80;;;;;;4996285;28;20034;-53
2024/01/02 10:02:13;;;;;;;111.90;56.50;;;11.40;92.50;;;;;;4996393;28;20026;-53
2024/01/02 10:04:46;;;;;;;101.68;57.10;;;11.60;91.60;;;;;;4995993;28;20476;-54
2024/01/02 10:07:37;;;;;;;108.85;57.10;;;12.10;87.70;;;;;;4996011;28;20468;-54
2024/01/02 10:10:12;;;;;;;106.97;56.40;;;12.70;88.30;;;;;;4996152;28;20110;-53
2024/01/02 10:12:59;;;;;;;103.30;57.08;;;13.30;83.00;;;;;;4996010;28;20048;-54
2024/01/02 10:15:42;;;;;;;103.22;56.45;;;13.10;83.70;;;;;;4995981;28;20088;-54
2024/01/02 10:18:16;;;;;;;100.63;56.60;;;14.00;81.00;;;;;;4996213;28;20030;-54
2024/01/02 10:20:48;;;;;;;104.20;54.88;;;14.40;75.70;;;;;;4995807;28;20484;-54
2024/01/02 10:23:49;;;;;;;90.30;53.00;;;14.50;74.10;;;;;;4995961;28;20384;-54
2024/01/02 10:26:18;;;;;;;89.30;53.30;;;14.60;76.10;;;;;;4974114;28;20067;-54
2024/01/02 10:28:48;;;;;;;105.13;55.25;;;14.60;72.90;;;;;;4992064;28;20045;-54
2024/01/02 10:31:46;;;;;;;83.65;50.28;;;15.10;69.80;;;;;;4995865;28;20023;-54
2024/01/02 10:34:37;;;;;;;96.15;56.03;;;14.80;69.60;;;;;;4995097;28;20047;-54
2024/01/02 10:37:07;;;;;;;;;;;15.10;71.40;;;;;;4994929;28;20038;-54
2024/01/02 10:39:38;;;;;;;110.53;59.07;;;15.10;66.60;;;;;;4996205;28;19909;-54
2024/01/02 10:42:13;;;;;;;96.00;58.50;;;14.60;71.60;;;;;;4995859;28;20264;-54
2024/01/02 10:44:48;;;;;;;105.90;57.78;;;14.90;69.70;;;;;;4995713;28;20026;-54
2024/01/02 10:47:29;;;;;;;88.47;54.53;;;15.60;70.80;;;;;;4995653;28;20030;-54
2024/01/02 10:50:04;;;;;;;102.80;59.65;;;16.20;66.10;;;;;;4995509;28;20046;-54
2024/01/02 10:53:19;;;;;;;100.97;60.10;;;16.30;62.50;;;;;;4995731;28;20029;-54
2024/01/02 10:55:50;;;;;;;93.90;57.10;;;16.00;65.40;;;;;;4985841;28;20038;-54
2024/01/02 10:58:27;;;;;;;91.88;56.85;;;16.30;64.90;;;;;;4995052;28;20042;-54
2024/01/02 11:01:15;;;;;;;102.45;57.22;;;16.30;66.40;;;;;;4999151;28;20034;-54
2024/01/02 11:03:51;;;;;;;91.80;56.13;;;16.10;64.00;;;;;;4997898;28;20518;-54
2024/01/02 11:06:36;;;;;;;91.75;58.13;;;16.50;65.40;;;;;;4999227;28;20081;-54
2024/01/02 11:09:17;;;;;;;106.05;65.10;;;16.10;63.00;;;;;;4999205;28;20484;-54
2024/01/02 11:11:44;;;;;;;;;;;16.00;66.50;;;;;;4999438;28;20101;-54
2024/01/02 11:14:14;;;;;;;98.82;63.65;;;15.70;69.30;;;;;;4999084;28;19973;-54
2024/01/02 11:16:44;;;;;;;109.10;69.32;;;15.30;69.40;;;;;;4998938;28;20555;-54
2024/01/02 11:19:13;;;;;;;114.43;70.20;;;15.50;70.00;;;;;;4998925;28;20050;-54
2024/01/02 11:22:15;;;;;;;122.25;71.53;;;14.80;72.80;;;;;;4998808;28;20077;-54
2024/01/02 11:24:48;;;;;;;132.73;79.38;;;14.40;74.20;;;;;;4987506;28;20042;-54
2024/01/02 11:27:20;;;;;;;133.05;82.32;;;14.10;72.20;;;;;;4998787;28;20076;-54
2024/01/02 11:29:48;;;;;;;143.13;84.88;;;13.80;73.90;;;;;;4998841;28;20542;-54
2024/01/02 11:32:17;;;;;;;155.75;90.43;;;13.10;76.50;;;;;;4998831;28;20046;-54
2024/01/02 11:34:58;;;;;;;150.40;90.22;;;12.90;78.80;;;;;;4998644;28;20109;-54
2024/01/02 11:37:27;;;;;;;147.52;87.55;;;12.90;80.30;;;;;;4998600;28;20030;-54
2024/01/02 11:40:03;;;;;;;141.80;85.32;;;13.30;80.10;;;;;;4998561;28;20042;-54
2024/01/02 11:42:47;;;;;;;129.60;77.05;;;14.00;77.50;;;;;;4998737;28;20376;-54
2024/01/02 11:45:17;;;;;;;118.88;70.50;;;14.10;77.50;;;;;;4998477;28;20049;-54
2024/01/02 11:47:45;;;;;;;116.43;68.72;;;14.50;75.70;;;;;;4998573;28;20368;-54
2024/01/02 11:50:15;;;;;;;126.00;70.95;;;14.70;75.10;;;;;;4998199;28;20043;-54
2024/01/02 11:53:05;;;;;;;143.70;71.60;;;15.00;73.80;;;;;;4998460;28;20030;-54
2024/01/02 11:55:49;;;;;;;116.90;66.25;;;15.30;73.90;;;;;;4998217;28;20030;-54
2024/01/02 11:58:36;;;;;;;110.22;63.85;;;15.00;71.90;;;;;;4998222;28;20022;-54
2024/01/02 12:01:26;;;;;;;99.80;60.40;;;15.40;71.30;;;;;;4998305;28;20026;-54
2024/01/02 12:03:55;;;;;;;101.18;60.15;;;15.60;70.80;;;;;;4998178;28;20034;-54
2024/01/02 12:06:43;;;;;;;102.97;58.60;;;15.90;68.60;;;;;;4998081;28;20572;-54
2024/01/02 12:09:15;;;;;;;103.13;60.58;;;16.00;68.70;;;;;;4998160;28;20096;-54
2024/01/02 12:11:48;;;;;;;99.32;58.55;;;15.90;69.80;;;;;;4997492;28;20218;-54
2024/01/02 12:14:45;;;;;;;98.55;58.45;;;16.20;68.10;;;;;;4997834;28;20023;-54
2024/01/02 12:17:15;;;;;;;112.45;60.85;;;16.60;67.60;;;;;;4997767;28;20038;-54
2024/01/02 12:19:43;;;;;;;106.07;60.97;;;16.70;67.60;;;;;;4997751;28;20041;-54
2024/01/02 12:22:10;;;;;;;108.65;63.13;;;17.10;66.00;;;;;;4997805;28;20431;-54
2024/01/02 12:24:38;;;;;;;110.55;63.42;;;17.10;66.70;;;;;;4997705;28;20069;-54
2024/01/02 12:27:06;;;;;;;117.55;63.63;;;16.60;65.60;;;;;;4997665;28;20034;-54
2024/01/02 12:29:48;;;;;;;101.80;58.70;;;17.20;65.80;;;;;;4997724;28;20030;-54